CBC6 weather

Calgary / Blue-Con Heliport
Calgary, Alberta, Canada

Public forecast

Using degrees Celsius for public forecast. Weather courtesy of forecast.io.

Closest aviation weather report (METAR) to Calgary / Blue-Con Heliport

Closest report is Calgary International Airport, 8.5 nm (15.7 km) NW. Retrieved 2019/12/09 08:00 UTC (5 minutes ago):

CYYC 090800Z 27012G19KT 10SM SCT060 BKN075 M04/M10 A2990 RMK SC4AC3 VIRGA SLP192

Closest aviation forecast (TAF) to Calgary / Blue-Con Heliport

Closest forecast is Calgary International Airport, 8.5 nm (15.7 km) NW. Retrieved 2019/12/09 09:39 UTC (0 seconds ago):

TAF CYYC 090838Z 0909/1006 28008KT P6SM SCT040 BKN080 OVC200 FM091600 30008KT P6SM SCT015 BKN040 OVC080 TEMPO 0916/1004 4SM -SN BKN015 OVC040 BECMG 0922/0924 VRB03KT FM100400 28006KT P6SM BKN025 TEMPO 1004/1006 BKN012 RMK NXT FCST BY 091200Z